Time;durP1;ratioP1;P1;durP2;ratioP2;P2;SDS_P1;SDS_P2;PMS_P1;PMS_P2;Temp;Humidity;BMP_temperature;BMP_pressure;BME280_temperature;BME280_humidity;BME280_pressure;Samples;Min_cycle;Max_cycle;Signal;HPM_P1;HPM_P2
2021/09/21 00:06:04;;;;;;;19.40;14.80;;;;;;;1.96;80.86;100152.67;461845;1192;142510;-63
2021/09/21 00:16:10;;;;;;;20.90;15.30;;;;;;;1.87;80.97;100154.40;462033;1192;142381;-63
2021/09/21 00:26:17;;;;;;;19.00;13.90;;;;;;;1.80;81.03;100144.52;461282;1191;142016;-65
2021/09/21 00:36:22;;;;;;;18.20;14.20;;;;;;;1.71;81.08;100145.70;468914;1192;141095;-66
2021/09/21 00:46:28;;;;;;;17.80;12.90;;;;;;;1.65;81.08;100146.86;471234;1192;141740;-66
2021/09/21 00:56:35;;;;;;;13.80;12.20;;;;;;;1.62;81.22;100153.98;475588;1190;141296;-66
2021/09/21 01:06:40;;;;;;;21.20;13.20;;;;;;;1.64;81.29;100157.59;477911;1190;140635;-66
2021/09/21 01:16:46;;;;;;;14.90;13.10;;;;;;;1.61;81.34;100156.78;476123;1190;141418;-65
2021/09/21 01:26:52;;;;;;;20.40;14.40;;;;;;;1.58;81.40;100156.83;474280;1191;144393;-66
2021/09/21 01:36:58;;;;;;;15.30;11.10;;;;;;;1.54;81.13;100158.44;477661;1191;141153;-67
2021/09/21 01:47:05;;;;;;;16.50;12.80;;;;;;;1.55;81.69;100161.89;474922;1190;141346;-65
2021/09/21 02:07:36;;;;;;;16.10;10.40;;;;;;;1.65;82.55;100156.69;469333;1190;141500;-66
2021/09/21 02:17:41;;;;;;;18.70;10.60;;;;;;;1.82;83.08;100157.41;473683;1190;141254;-65
2021/09/21 02:27:48;;;;;;;12.90;10.80;;;;;;;1.97;83.19;100158.02;474345;1190;141106;-67
2021/09/21 02:37:54;;;;;;;20.50;12.20;;;;;;;2.04;83.35;100162.20;477460;1191;142071;-66
2021/09/21 02:47:59;;;;;;;16.20;11.00;;;;;;;2.04;83.41;100162.54;475306;1191;143446;-67
2021/09/21 02:58:06;;;;;;;14.20;10.40;;;;;;;2.02;83.53;100162.55;473072;1192;142232;-67
2021/09/21 03:08:15;;;;;;;15.70;10.90;;;;;;;1.91;83.24;100162.09;475221;1191;142026;-67
2021/09/21 03:18:20;;;;;;;13.90;10.00;;;;;;;1.77;83.02;100167.71;463819;1192;140916;-64
2021/09/21 03:28:26;;;;;;;13.90;10.10;;;;;;;1.61;82.87;100163.50;470499;1191;141356;-66
2021/09/21 03:38:33;;;;;;;13.90;10.60;;;;;;;1.42;82.76;100165.20;476749;1191;142462;-67
2021/09/21 03:48:40;;;;;;;17.60;11.50;;;;;;;1.29;82.51;100176.82;477495;1191;142260;-66
2021/09/21 03:58:46;;;;;;;16.70;11.70;;;;;;;1.16;82.45;100185.29;477588;1191;142334;-66
2021/09/21 04:08:53;;;;;;;19.10;10.90;;;;;;;1.15;82.77;100194.27;477005;1190;143763;-67
2021/09/21 04:19:01;;;;;;;15.60;10.30;;;;;;;1.11;82.56;100214.69;477928;1190;141581;-66
2021/09/21 04:29:07;;;;;;;17.10;12.20;;;;;;;1.08;82.57;100216.62;474145;1190;142573;-64
2021/09/21 04:39:13;;;;;;;15.00;12.30;;;;;;;1.09;82.56;100223.15;460904;1190;141631;-66
2021/09/21 04:49:19;;;;;;;18.00;12.80;;;;;;;1.24;83.01;100231.58;471566;1190;142125;-66
2021/09/21 04:59:26;;;;;;;18.60;13.00;;;;;;;1.46;83.14;100235.89;462368;1190;141607;-67
2021/09/21 05:09:33;;;;;;;17.80;13.20;;;;;;;1.72;82.65;100240.29;477553;1190;141738;-67
2021/09/21 05:19:43;;;;;;;22.70;13.00;;;;;;;2.23;82.66;100237.48;477415;1191;141726;-66
2021/09/21 05:29:50;;;;;;;16.50;12.80;;;;;;;4.39;82.93;100233.86;463335;1190;140819;-67
2021/09/21 05:39:56;;;;;;;20.70;12.90;;;;;;;9.82;81.69;100230.99;477289;1191;143424;-67
2021/09/21 05:50:02;;;;;;;15.60;12.20;;;;;;;16.92;72.80;100227.91;476353;1190;154887;-66
2021/09/21 06:00:10;;;;;;;14.10;9.00;;;;;;;21.88;65.13;100224.89;477715;1190;183344;-66
2021/09/21 06:10:18;;;;;;;10.60;9.00;;;;;;;25.90;58.20;100230.49;474466;1190;140808;-67
2021/09/21 06:20:25;;;;;;;8.60;7.80;;;;;;;27.86;52.16;100235.31;472326;1190;142410;-65
2021/09/21 06:30:30;;;;;;;;;;;;;;;30.18;48.07;100235.92;476197;1190;141588;-65
2021/09/21 06:40:37;;;;;;;7.80;7.00;;;;;;;32.36;42.96;100229.36;467569;1190;127900;-59
2021/09/21 06:50:45;;;;;;;7.10;6.00;;;;;;;33.27;39.81;100225.80;475248;1191;143750;-59
2021/09/21 07:00:51;;;;;;;6.90;6.20;;;;;;;34.35;36.84;100230.84;474002;1191;140222;-63
2021/09/21 07:10:57;;;;;;;5.90;5.40;;;;;;;33.71;34.61;100242.49;477661;1191;142901;-60
2021/09/21 07:21:05;;;;;;;8.80;5.70;;;;;;;33.93;32.84;100250.48;477806;1190;140643;-63
2021/09/21 07:31:15;;;;;;;5.10;4.50;;;;;;;33.79;31.43;100255.88;473619;1187;140974;-63
2021/09/21 07:41:21;;;;;;;5.40;4.60;;;;;;;34.36;29.95;100264.45;470958;1192;140934;-64
2021/09/21 07:51:27;;;;;;;5.80;4.40;;;;;;;36.21;28.44;100266.73;470695;1191;141017;-62
2021/09/21 08:01:35;;;;;;;3.80;3.40;;;;;;;34.90;27.41;100277.86;474459;1191;141479;-63
2021/09/21 08:11:47;;;;;;;3.60;3.30;;;;;;;33.12;26.39;100278.85;460208;1192;141551;-61
2021/09/21 08:21:53;;;;;;;4.80;3.20;;;;;;;32.72;26.63;100285.20;461378;1192;140230;-72
2021/09/21 08:32:00;;;;;;;4.30;2.80;;;;;;;31.42;25.82;100283.09;445620;1192;20001401;-71
2021/09/21 08:42:06;;;;;;;3.00;2.70;;;;;;;30.44;26.71;100289.54;463238;1190;141098;-73
2021/09/21 08:52:13;;;;;;;2.70;2.30;;;;;;;28.38;27.39;100281.42;475405;1192;142322;-73
2021/09/21 09:02:21;;;;;;;1.60;1.50;;;;;;;22.65;30.43;100283.86;473831;1190;140186;-66
2021/09/21 09:12:32;;;;;;;1.70;1.60;;;;;;;19.18;34.10;100292.84;470775;1190;140284;-70
2021/09/21 09:22:38;;;;;;;4.40;2.80;;;;;;;17.66;36.38;100291.92;465003;1192;140720;-65
2021/09/21 09:32:50;;;;;;;3.90;3.50;;;;;;;16.58;38.21;100295.73;465113;1191;143163;-62
2021/09/21 09:42:57;;;;;;;3.10;2.80;;;;;;;15.50;39.93;100292.66;477646;1190;141132;-64
2021/09/21 09:53:15;;;;;;;8.00;3.20;;;;;;;15.23;41.11;100285.48;476890;1191;142241;-63
2021/09/21 10:03:21;;;;;;;3.20;2.90;;;;;;;14.96;42.27;100289.89;477558;1192;140709;-64
2021/09/21 10:13:28;;;;;;;3.30;2.70;;;;;;;15.22;42.64;100290.23;464388;1191;140163;-64
2021/09/21 10:23:36;;;;;;;5.70;2.80;;;;;;;15.26;42.86;100282.05;473284;1190;141175;-71
2021/09/21 10:33:42;;;;;;;3.90;3.00;;;;;;;15.12;43.16;100274.40;470583;1190;141344;-68
2021/09/21 10:44:01;;;;;;;5.10;2.60;;;;;;;14.91;43.67;100273.79;471893;1190;140983;-70
2021/09/21 10:54:07;;;;;;;2.70;2.40;;;;;;;15.21;44.10;100283.16;477855;1190;140473;-67
2021/09/21 11:04:13;;;;;;;4.80;2.90;;;;;;;14.81;44.06;100289.15;471447;1189;141228;-65
2021/09/21 11:14:21;;;;;;;3.00;2.70;;;;;;;15.01;44.32;100285.28;477158;1190;140444;-68
2021/09/21 11:24:27;;;;;;;3.20;2.70;;;;;;;15.19;44.23;100292.25;467176;1190;141497;-68
2021/09/21 11:34:33;;;;;;;3.70;2.70;;;;;;;15.00;44.52;100286.38;465960;1190;141180;-65
2021/09/21 11:44:40;;;;;;;3.60;2.20;;;;;;;15.17;44.71;100291.69;468075;1190;140343;-62
2021/09/21 11:54:46;;;;;;;3.30;2.70;;;;;;;15.02;44.29;100286.99;461645;1190;140859;-66
2021/09/21 12:04:53;;;;;;;6.80;2.80;;;;;;;14.82;44.49;100280.79;461341;1190;140537;-63
2021/09/21 12:15:00;;;;;;;3.50;1.70;;;;;;;14.96;44.83;100280.86;460363;1192;140433;-63
2021/09/21 12:25:12;;;;;;;6.40;2.90;;;;;;;15.00;44.30;100284.48;477838;1190;142428;-63
2021/09/21 12:35:17;;;;;;;2.30;2.00;;;;;;;14.92;44.47;100276.55;471115;1190;141262;-67
2021/09/21 12:45:23;;;;;;;3.20;2.00;;;;;;;14.78;44.58;100271.84;476603;1191;140884;-66
2021/09/21 12:55:35;;;;;;;5.90;2.40;;;;;;;14.52;44.99;100266.65;463659;1191;143310;-63
2021/09/21 13:05:40;;;;;;;3.70;2.70;;;;;;;14.56;45.28;100260.02;476617;1190;141286;-61
2021/09/21 13:15:46;;;;;;;2.40;2.20;;;;;;;14.42;45.75;100259.00;475671;1191;142286;-59
2021/09/21 13:25:52;;;;;;;9.80;3.70;;;;;;;14.47;45.88;100255.01;466275;1190;140929;-60
2021/09/21 13:35:58;;;;;;;3.20;2.40;;;;;;;14.49;46.06;100253.58;477933;1190;140648;-61
2021/09/21 13:46:04;;;;;;;6.10;2.50;;;;;;;14.43;46.39;100250.52;465584;1190;140614;-61
2021/09/21 13:56:11;;;;;;;8.60;4.30;;;;;;;14.32;46.72;100247.75;474745;1190;140109;-71
2021/09/21 14:06:17;;;;;;;4.00;2.60;;;;;;;14.02;47.17;100247.34;474242;1189;140500;-68
2021/09/21 14:16:22;;;;;;;5.00;3.20;;;;;;;13.72;47.99;100252.84;475526;1190;143197;-70
2021/09/21 14:26:28;;;;;;;6.70;3.40;;;;;;;13.72;48.36;100242.78;472637;1190;141348;-69
2021/09/21 14:36:34;;;;;;;6.60;2.80;;;;;;;13.91;48.61;100238.90;477840;1190;141391;-66
2021/09/21 14:46:40;;;;;;;3.40;3.10;;;;;;;13.84;48.44;100232.16;462729;1191;139902;-68
2021/09/21 14:56:47;;;;;;;3.70;2.40;;;;;;;13.63;48.81;100229.30;461818;1190;141430;-63
2021/09/21 15:06:53;;;;;;;7.70;3.30;;;;;;;13.40;49.60;100231.34;469185;1190;140040;-64
2021/09/21 15:17:01;;;;;;;3.40;3.10;;;;;;;13.25;50.34;100233.13;473238;1190;162511;-65
2021/09/21 15:27:07;;;;;;;3.70;2.80;;;;;;;13.02;50.96;100236.74;462754;1192;140641;-64
2021/09/21 15:37:14;;;;;;;4.80;3.00;;;;;;;12.85;51.39;100239.04;461466;1190;10140647;-70
2021/09/21 15:47:23;;;;;;;5.70;3.90;;;;;;;12.71;51.91;100238.66;476694;1190;145526;-65
2021/09/21 15:57:29;;;;;;;4.70;3.20;;;;;;;12.52;52.30;100243.34;477486;1190;141416;-67
2021/09/21 16:07:35;;;;;;;3.80;3.30;;;;;;;12.29;53.07;100242.30;473152;1191;140696;-67
2021/09/21 16:17:40;;;;;;;4.70;4.10;;;;;;;12.04;53.92;100238.35;470215;1190;140826;-68
2021/09/21 16:27:50;;;;;;;4.30;3.50;;;;;;;11.84;54.52;100238.80;477398;1192;142047;-67
2021/09/21 16:37:57;;;;;;;7.80;6.20;;;;;;;11.65;55.64;100235.32;471008;1190;139834;-67
2021/09/21 16:48:06;;;;;;;5.90;4.50;;;;;;;11.37;56.76;100236.05;469768;1190;10002377;-67
2021/09/21 16:58:12;;;;;;;8.60;6.10;;;;;;;11.16;57.78;100246.33;472690;1190;141438;-65
2021/09/21 17:08:20;;;;;;;9.30;7.30;;;;;;;11.10;58.39;100245.98;460050;1192;182478;-67
2021/09/21 17:18:26;;;;;;;9.50;6.40;;;;;;;11.01;58.79;100246.25;472974;1191;141431;-68
2021/09/21 17:28:32;;;;;;;9.70;6.30;;;;;;;10.89;59.00;100239.90;472910;1190;142232;-65
2021/09/21 17:38:38;;;;;;;8.20;7.40;;;;;;;10.78;59.39;100245.92;468460;1190;143097;-67
2021/09/21 17:48:43;;;;;;;8.30;6.50;;;;;;;10.69;59.88;100246.08;477744;1190;143213;-67
2021/09/21 17:58:49;;;;;;;7.60;6.40;;;;;;;10.63;60.14;100247.08;470001;1190;141724;-68
2021/09/21 18:08:55;;;;;;;7.00;4.80;;;;;;;10.58;60.19;100239.33;476271;1189;141346;-68
2021/09/21 18:20:00;;;;;;;7.00;6.10;;;;;;;10.54;60.86;100239.16;477679;1190;151541;-68
2021/09/21 18:30:08;;;;;;;6.60;5.90;;;;;;;10.54;61.87;100240.39;476840;1191;141630;-69
2021/09/21 18:40:15;;;;;;;7.50;5.80;;;;;;;10.47;62.66;100243.02;470880;1191;141429;-66
2021/09/21 18:50:22;;;;;;;8.30;6.90;;;;;;;10.41;63.35;100238.09;469717;1191;146356;-67
2021/09/21 19:00:30;;;;;;;9.40;6.80;;;;;;;10.33;64.58;100236.70;468370;1191;141264;-70
2021/09/21 19:10:36;;;;;;;10.00;8.30;;;;;;;10.28;65.72;100244.88;463843;1190;144426;-70
2021/09/21 19:20:43;;;;;;;13.70;11.20;;;;;;;10.14;66.56;100234.73;470320;1190;141514;-66
2021/09/21 19:30:50;;;;;;;11.20;9.20;;;;;;;10.06;67.28;100231.46;477468;1190;143671;-66
2021/09/21 19:40:56;;;;;;;10.50;9.20;;;;;;;10.01;67.87;100232.45;468251;1190;141445;-67
2021/09/21 19:51:02;;;;;;;12.70;10.10;;;;;;;9.87;68.52;100216.67;472482;1190;141293;-65
2021/09/21 20:01:08;;;;;;;13.30;9.30;;;;;;;9.83;68.92;100215.65;462501;1190;142018;-68
2021/09/21 20:11:14;;;;;;;11.20;9.70;;;;;;;9.79;69.35;100210.80;467639;1190;10002939;-68
2021/09/21 20:21:20;;;;;;;10.30;8.10;;;;;;;9.77;69.93;100201.31;465836;1190;142198;-68
2021/09/21 20:31:27;;;;;;;14.40;12.30;;;;;;;9.77;70.25;100197.27;461058;1190;141114;-71
2021/09/21 20:41:33;;;;;;;23.90;21.40;;;;;;;9.73;70.66;100192.95;461567;1190;142419;-67
2021/09/21 20:51:40;;;;;;;19.30;15.80;;;;;;;9.68;71.23;100189.53;462783;1190;141866;-66
2021/09/21 21:01:47;;;;;;;12.60;11.20;;;;;;;9.64;71.63;100191.10;471675;1190;141738;-66
2021/09/21 21:11:53;;;;;;;16.70;14.10;;;;;;;9.61;71.97;100183.36;460382;1190;141126;-67
2021/09/21 21:21:59;;;;;;;19.00;15.70;;;;;;;9.57;72.27;100173.77;474728;1190;142075;-68
2021/09/21 21:32:06;;;;;;;19.10;16.30;;;;;;;9.53;72.56;100172.39;460617;1190;141960;-68
2021/09/21 21:42:12;;;;;;;23.70;17.40;;;;;;;9.48;72.64;100162.52;465341;1190;144198;-67
2021/09/21 21:52:17;;;;;;;17.60;14.10;;;;;;;9.42;73.25;100158.97;468579;1190;141362;-68
2021/09/21 22:02:24;;;;;;;15.20;11.40;;;;;;;9.34;73.52;100151.67;466794;1190;141276;-67
2021/09/21 22:12:30;;;;;;;13.40;11.30;;;;;;;9.16;73.95;100143.49;467599;1191;142297;-64
2021/09/21 22:22:36;;;;;;;13.60;11.50;;;;;;;8.94;74.43;100138.95;461039;1192;140915;-65
2021/09/21 22:32:42;;;;;;;11.00;9.80;;;;;;;8.84;74.84;100139.09;471363;1190;142861;-62
2021/09/21 22:42:48;;;;;;;12.70;10.00;;;;;;;8.82;75.19;100129.09;472608;1191;142997;-61
2021/09/21 22:52:54;;;;;;;11.50;9.50;;;;;;;8.76;75.49;100126.03;470765;1191;141437;-60
2021/09/21 23:03:00;;;;;;;11.30;10.30;;;;;;;8.69;76.15;100118.50;477713;1191;142031;-62
2021/09/21 23:13:06;;;;;;;11.10;9.70;;;;;;;8.68;76.33;100110.51;464558;1188;144192;-61
2021/09/21 23:23:14;;;;;;;13.00;10.00;;;;;;;8.62;76.55;100104.00;470622;1190;142483;-62
2021/09/21 23:33:19;;;;;;;9.90;8.50;;;;;;;8.57;76.80;100104.23;476054;1190;142353;-64
2021/09/21 23:43:25;;;;;;;11.30;9.60;;;;;;;8.52;76.83;100098.33;477918;1184;141368;-66
2021/09/21 23:53:31;;;;;;;12.60;9.10;;;;;;;8.49;77.08;100088.02;472992;1191;141756;-59
